createdAt,value
2019-04-07T00:00:09.638Z,25.68
2019-04-07T00:02:38.583Z,28.43
2019-04-07T00:05:12.525Z,26.87
2019-04-07T00:07:37.891Z,30.12
2019-04-07T00:10:08.575Z,29.87
2019-04-07T00:12:37.018Z,26.50
2019-04-07T00:15:06.209Z,24.63
2019-04-07T00:17:34.619Z,25.40
2019-04-07T00:20:03.179Z,24.40
2019-04-07T00:22:31.623Z,24.98
2019-04-07T00:25:00.604Z,20.15
2019-04-07T00:27:29.110Z,23.38
2019-04-07T00:29:57.917Z,27.30
2019-04-07T00:32:26.419Z,21.85
2019-04-07T00:34:55.274Z,22.37
2019-04-07T00:37:23.822Z,23.62
2019-04-07T00:39:52.351Z,22.07
2019-04-07T00:42:20.761Z,23.40
2019-04-07T00:44:49.611Z,20.95
2019-04-07T00:47:18.568Z,24.55
2019-04-07T00:49:47.547Z,26.95
2019-04-07T00:52:17.552Z,22.27
2019-04-07T00:54:45.958Z,25.25
2019-04-07T00:57:14.827Z,21.40
2019-04-07T00:59:43.282Z,24.72
2019-04-07T01:02:12.276Z,24.47
2019-04-07T01:04:40.715Z,22.58
2019-04-07T01:07:09.182Z,21.82
2019-04-07T01:09:40.363Z,24.52
2019-04-07T01:12:10.799Z,26.82
2019-04-07T01:14:39.271Z,23.92
2019-04-07T01:17:08.254Z,22.25
2019-04-07T01:19:36.652Z,26.65
2019-04-07T01:22:05.441Z,23.50
2019-04-07T01:24:34.142Z,25.12
2019-04-07T01:27:02.867Z,21.65
2019-04-07T01:29:31.307Z,22.60
2019-04-07T01:31:59.719Z,21.42
2019-04-07T01:34:28.208Z,22.95
2019-04-07T01:36:58.301Z,25.32
2019-04-07T01:39:27.300Z,22.40
2019-04-07T01:41:57.443Z,20.62
2019-04-07T01:44:30.093Z,19.12
2019-04-07T01:47:00.127Z,24.52
2019-04-07T01:49:39.185Z,23.90
2019-04-07T01:52:14.947Z,21.27
2019-04-07T01:54:44.980Z,21.50
2019-04-07T01:57:20.955Z,23.32
2019-04-07T01:59:59.554Z,26.30
2019-04-07T02:02:29.623Z,25.10
2019-04-07T02:05:06.659Z,26.12
2019-04-07T02:07:40.079Z,25.10
2019-04-07T02:10:22.397Z,23.30
2019-04-07T02:13:02.061Z,25.25
2019-04-07T02:15:34.894Z,24.02
2019-04-07T02:18:11.376Z,22.55
2019-04-07T02:21:03.405Z,21.33
2019-04-07T02:23:37.128Z,20.52
2019-04-07T02:26:16.400Z,22.35
2019-04-07T02:28:49.569Z,21.10
2019-04-07T02:34:07.126Z,23.18
2019-04-07T02:36:46.592Z,24.77
2019-04-07T02:39:17.396Z,24.92
2019-04-07T02:41:51.750Z,22.40
2019-04-07T02:44:38.976Z,23.80
2019-04-07T02:47:09.848Z,19.48
2019-04-07T02:49:42.718Z,24.25
2019-04-07T02:52:16.410Z,21.77
2019-04-07T02:54:46.792Z,20.70
2019-04-07T02:57:22.714Z,24.32
2019-04-07T02:59:55.875Z,22.50
2019-04-07T03:02:29.195Z,22.42
2019-04-07T03:04:59.953Z,21.55
2019-04-07T03:07:32.890Z,21.60
2019-04-07T03:10:15.920Z,21.57
2019-04-07T03:13:02.867Z,21.80
2019-04-07T03:15:33.061Z,19.65
2019-04-07T03:18:10.189Z,23.57
2019-04-07T03:20:56.575Z,22.20
2019-04-07T03:23:29.024Z,23.52
2019-04-07T03:26:05.069Z,19.82
2019-04-07T03:28:47.504Z,22.90
2019-04-07T03:31:27.320Z,21.63
2019-04-07T03:34:03.066Z,20.35
2019-04-07T03:37:09.424Z,21.17
2019-04-07T03:39:19.172Z,18.95
2019-04-07T03:41:49.488Z,21.37
2019-04-07T03:44:22.612Z,20.55
2019-04-07T03:49:41.266Z,19.57
2019-04-07T03:52:17.269Z,21.77
2019-04-07T03:54:50.849Z,19.82
2019-04-07T03:57:21.547Z,20.50
2019-04-07T03:59:55.494Z,22.32
2019-04-07T04:02:41.045Z,18.40
2019-04-07T04:05:24.262Z,25.23
2019-04-07T04:07:54.628Z,23.85
2019-04-07T04:10:24.739Z,21.55
2019-04-07T04:13:13.167Z,20.43
2019-04-07T04:15:49.311Z,23.35
2019-04-07T04:18:18.515Z,23.40
2019-04-07T04:20:46.878Z,24.05
2019-04-07T04:23:15.260Z,22.07
2019-04-07T04:25:43.658Z,20.82
2019-04-07T04:28:31.671Z,23.40
2019-04-07T04:31:00.044Z,20.57
2019-04-07T04:33:28.416Z,19.15
2019-04-07T04:35:56.819Z,23.25
2019-04-07T04:38:25.201Z,20.68
2019-04-07T04:40:53.593Z,21.15
2019-04-07T04:43:21.982Z,21.30
2019-04-07T04:45:50.563Z,21.12
2019-04-07T04:48:19.732Z,22.98
2019-04-07T04:50:49.160Z,21.95
2019-04-07T04:53:18.460Z,25.75
2019-04-07T04:55:47.697Z,21.17
2019-04-07T04:58:17.308Z,23.00
2019-04-07T05:00:46.644Z,23.42
2019-04-07T05:03:16.004Z,24.75
2019-04-07T05:05:44.708Z,23.67
2019-04-07T05:08:13.600Z,23.52
2019-04-07T05:10:45.662Z,23.32
2019-04-07T05:13:15.961Z,20.68
2019-04-07T05:15:46.837Z,25.35
2019-04-07T05:18:16.544Z,19.82
2019-04-07T05:20:45.618Z,20.92
2019-04-07T05:23:14.246Z,22.25
2019-04-07T05:25:43.781Z,20.65
2019-04-07T05:28:14.560Z,19.92
2019-04-07T05:30:43.553Z,23.98
2019-04-07T05:33:14.122Z,22.62
2019-04-07T05:35:42.924Z,22.32
2019-04-07T05:38:11.633Z,21.45
2019-04-07T05:40:40.125Z,20.00
2019-04-07T05:43:08.685Z,20.90
2019-04-07T05:45:37.671Z,22.32
2019-04-07T05:48:06.494Z,24.43
2019-04-07T05:50:34.965Z,22.65
2019-04-07T05:53:04.235Z,25.00
2019-04-07T05:55:33.427Z,24.25
2019-04-07T05:58:05.195Z,22.58
2019-04-07T06:00:32.317Z,21.60
2019-04-07T06:03:04.532Z,25.65
2019-04-07T06:05:31.865Z,23.30
2019-04-07T06:08:06.274Z,24.55
2019-04-07T06:10:30.602Z,25.50
2019-04-07T06:12:59.562Z,24.77
2019-04-07T06:15:28.142Z,22.22
2019-04-07T06:18:01.099Z,21.77
2019-04-07T06:20:26.739Z,21.50
2019-04-07T06:22:55.210Z,22.75
2019-04-07T06:25:23.707Z,21.68
2019-04-07T06:27:52.331Z,24.90
2019-04-07T06:30:22.070Z,19.50
2019-04-07T06:32:54.712Z,22.77
2019-04-07T06:35:22.550Z,20.72
2019-04-07T06:37:51.951Z,20.25
2019-04-07T06:40:21.960Z,22.95
2019-04-07T06:42:50.886Z,24.95
2019-04-07T06:45:36.119Z,23.62
2019-04-07T06:48:09.356Z,23.25
2019-04-07T06:50:50.257Z,23.98
2019-04-07T06:53:19.736Z,24.37
2019-04-07T06:56:07.480Z,24.47
2019-04-07T06:58:41.746Z,24.23
2019-04-07T07:01:25.153Z,26.42
2019-04-07T07:04:11.092Z,24.90
2019-04-07T07:06:49.319Z,26.17
2019-04-07T07:09:25.693Z,25.40
2019-04-07T07:11:57.244Z,31.35
2019-04-07T07:17:18.562Z,27.55
2019-04-07T07:19:50.844Z,28.57
2019-04-07T07:22:36.300Z,30.90
2019-04-07T07:25:05.255Z,31.07
2019-04-07T07:27:33.871Z,30.82
2019-04-07T07:30:02.632Z,26.82
2019-04-07T07:32:35.558Z,28.32
2019-04-07T07:35:01.826Z,27.30
2019-04-07T07:37:31.702Z,28.05
2019-04-07T07:40:00.954Z,29.72
2019-04-07T07:42:30.504Z,28.42
2019-04-07T07:44:59.110Z,29.40
2019-04-07T07:47:29.630Z,33.78
2019-04-07T07:49:58.641Z,31.25
2019-04-07T07:52:30.906Z,27.90
2019-04-07T07:55:00.804Z,28.50
2019-04-07T07:57:30.493Z,26.30
2019-04-07T07:59:59.732Z,28.92
2019-04-07T08:02:33.389Z,26.17
2019-04-07T08:05:01.988Z,25.40
2019-04-07T08:07:31.104Z,25.43
2019-04-07T08:09:59.733Z,26.87
2019-04-07T08:12:34.706Z,24.75
2019-04-07T08:14:58.893Z,24.50
2019-04-07T08:17:27.723Z,23.45
2019-04-07T08:19:56.734Z,22.37
2019-04-07T08:22:32.040Z,21.48
2019-04-07T08:24:59.251Z,16.45
2019-04-07T08:27:31.018Z,18.02
2019-04-07T08:29:59.118Z,15.50
2019-04-07T08:32:30.826Z,15.43
2019-04-07T08:35:01.464Z,13.60
2019-04-07T08:37:33.168Z,16.73
2019-04-07T08:40:04.294Z,15.03
2019-04-07T08:42:31.465Z,16.48
2019-04-07T08:45:00.710Z,14.03
2019-04-07T08:47:30.204Z,14.30
2019-04-07T08:49:58.762Z,15.08
2019-04-07T08:52:27.226Z,15.72
2019-04-07T08:54:55.663Z,14.65
2019-04-07T08:57:27.205Z,13.85
2019-04-07T08:59:55.146Z,14.47
2019-04-07T09:02:26.038Z,12.95
2019-04-07T09:04:55.877Z,12.55
2019-04-07T09:07:24.958Z,13.83
2019-04-07T09:09:53.410Z,12.30
2019-04-07T09:12:21.869Z,14.10
2019-04-07T09:14:50.385Z,12.60
2019-04-07T09:17:43.246Z,13.00
2019-04-07T09:20:15.171Z,13.70
2019-04-07T09:22:56.659Z,15.08
2019-04-07T09:25:37.870Z,13.68
2019-04-07T09:28:10.065Z,12.98
2019-04-07T09:30:49.335Z,10.70
2019-04-07T09:33:28.662Z,13.22
2019-04-07T09:36:03.583Z,13.88
2019-04-07T09:38:50.237Z,11.00
2019-04-07T09:41:37.464Z,10.88
2019-04-07T09:44:11.444Z,9.65
2019-04-07T09:49:36.906Z,9.10
2019-04-07T09:52:25.233Z,7.75
2019-04-07T09:54:58.640Z,7.75
2019-04-07T09:57:30.312Z,7.25
2019-04-07T10:00:07.581Z,8.18
2019-04-07T10:02:56.238Z,9.98
2019-04-07T10:05:42.840Z,8.25
2019-04-07T10:08:31.615Z,8.70
2019-04-07T10:11:01.771Z,10.55
2019-04-07T10:13:44.130Z,9.45
2019-04-07T10:16:17.527Z,11.27
2019-04-07T10:19:03.889Z,9.10
2019-04-07T10:21:51.680Z,10.95
2019-04-07T10:24:24.627Z,9.73
2019-04-07T10:27:03.246Z,12.23
2019-04-07T10:29:50.297Z,9.75
2019-04-07T10:32:32.500Z,9.78
2019-04-07T10:35:02.586Z,8.73
2019-04-07T10:37:38.941Z,9.30
2019-04-07T10:40:18.223Z,9.23
2019-04-07T10:42:41.257Z,10.97
2019-04-07T10:45:16.322Z,9.23
2019-04-07T10:47:46.403Z,8.10
2019-04-07T10:50:19.975Z,8.93
2019-04-07T10:53:04.898Z,9.08
2019-04-07T10:55:49.943Z,8.10
2019-04-07T10:58:26.508Z,9.48
2019-04-07T11:00:59.741Z,8.83
2019-04-07T11:03:46.437Z,8.00
2019-04-07T11:06:30.570Z,8.00
2019-04-07T11:09:00.630Z,7.87
2019-04-07T11:11:31.469Z,7.90
2019-04-07T11:14:18.498Z,9.05
2019-04-07T11:17:06.410Z,8.28
2019-04-07T11:19:43.342Z,7.67
2019-04-07T11:22:29.774Z,7.65
2019-04-07T11:24:59.847Z,7.22
2019-04-07T11:27:46.797Z,7.90
2019-04-07T11:30:17.001Z,8.33
2019-04-07T11:32:47.814Z,8.33
2019-04-07T11:35:18.034Z,8.65
2019-04-07T11:37:57.199Z,8.10
2019-04-07T11:40:43.164Z,11.15
2019-04-07T11:43:05.440Z,8.83
2019-04-07T11:45:53.350Z,9.63
2019-04-07T11:48:13.358Z,9.38
2019-04-07T11:50:55.260Z,7.72
2019-04-07T11:53:25.981Z,8.88
2019-04-07T11:55:58.956Z,8.85
2019-04-07T12:01:26.890Z,8.23
2019-04-07T12:04:03.047Z,6.92
2019-04-07T12:06:39.640Z,7.60
2019-04-07T12:09:13.085Z,9.00
2019-04-07T12:11:59.552Z,8.70
2019-04-07T12:14:50.037Z,9.78
2019-04-07T12:17:33.962Z,8.78
2019-04-07T12:20:05.341Z,9.60
2019-04-07T12:22:46.878Z,11.05
2019-04-07T12:25:16.990Z,10.20
2019-04-07T12:28:02.217Z,8.85
2019-04-07T12:30:32.715Z,8.73
2019-04-07T12:33:12.235Z,12.35
2019-04-07T12:35:55.467Z,10.80
2019-04-07T12:38:44.711Z,9.80
2019-04-07T12:41:23.414Z,12.37
2019-04-07T12:43:56.511Z,8.70
2019-04-07T12:46:42.993Z,10.08
2019-04-07T12:49:29.883Z,8.93
2019-04-07T12:52:12.813Z,10.28
2019-04-07T12:54:46.015Z,8.95
2019-04-07T12:57:16.898Z,8.43
2019-04-07T12:59:48.718Z,9.03
2019-04-07T13:02:20.012Z,9.18
2019-04-07T13:05:05.087Z,8.70
2019-04-07T13:07:42.915Z,8.80
2019-04-07T13:10:13.063Z,11.60
2019-04-07T13:12:49.707Z,9.68
2019-04-07T13:15:36.706Z,8.98
2019-04-07T13:18:25.419Z,7.87
2019-04-07T13:20:55.498Z,9.70
2019-04-07T13:23:28.727Z,7.33
2019-04-07T13:26:16.483Z,8.93
2019-04-07T13:28:46.487Z,9.70
2019-04-07T13:31:28.745Z,12.18
2019-04-07T13:34:04.722Z,8.08
2019-04-07T13:36:51.082Z,9.63
2019-04-07T13:39:26.030Z,9.00
2019-04-07T13:42:02.225Z,8.75
2019-04-07T13:44:45.726Z,8.73
2019-04-07T13:47:18.891Z,8.58
2019-04-07T13:50:00.686Z,8.25
2019-04-07T13:52:35.391Z,7.80
2019-04-07T13:55:19.502Z,8.08
2019-04-07T13:57:55.614Z,7.25
2019-04-07T14:00:24.108Z,10.88
2019-04-07T14:02:54.989Z,7.33
2019-04-07T14:05:26.307Z,7.80
2019-04-07T14:08:00.377Z,7.03
2019-04-07T14:10:33.344Z,6.33
2019-04-07T14:13:19.782Z,7.15
2019-04-07T14:16:05.145Z,6.58
2019-04-07T14:18:52.343Z,6.78
2019-04-07T14:21:21.789Z,6.28
2019-04-07T14:24:08.187Z,6.35
2019-04-07T14:26:43.413Z,6.67
2019-04-07T14:29:16.980Z,6.60
2019-04-07T14:31:50.227Z,8.63
2019-04-07T14:37:03.221Z,8.10
2019-04-07T14:39:37.121Z,4.87
2019-04-07T14:44:53.359Z,5.90
2019-04-07T14:47:39.348Z,5.75
2019-04-07T14:50:26.399Z,6.03
2019-04-07T14:53:03.182Z,6.28
2019-04-07T14:55:36.784Z,6.50
2019-04-07T14:58:13.462Z,8.85
2019-04-07T15:00:41.767Z,5.87
2019-04-07T15:03:15.946Z,6.47
2019-04-07T15:05:55.271Z,5.70
2019-04-07T15:08:23.691Z,6.35
2019-04-07T15:10:53.768Z,6.15
2019-04-07T15:13:28.173Z,5.58
2019-04-07T15:15:57.170Z,6.03
2019-04-07T15:18:28.699Z,4.22
2019-04-07T15:20:57.314Z,4.15
2019-04-07T15:23:29.468Z,5.33
2019-04-07T15:25:59.041Z,4.95
2019-04-07T15:28:30.648Z,3.92
2019-04-07T15:30:57.613Z,4.15
2019-04-07T15:33:26.041Z,2.95
2019-04-07T15:35:54.575Z,3.10
2019-04-07T15:38:26.853Z,3.58
2019-04-07T15:40:53.021Z,3.52
2019-04-07T15:43:22.284Z,4.28
2019-04-07T15:45:50.793Z,8.20
2019-04-07T15:48:21.155Z,4.25
2019-04-07T15:50:56.279Z,3.67
2019-04-07T15:53:25.568Z,4.05
2019-04-07T15:56:01.989Z,3.33
2019-04-07T15:58:26.766Z,3.62
2019-04-07T16:00:54.843Z,3.00
2019-04-07T16:03:23.234Z,3.20
2019-04-07T16:05:52.317Z,3.60
2019-04-07T16:08:20.943Z,2.90
2019-04-07T16:10:49.336Z,2.92
2019-04-07T16:13:18.436Z,4.33
2019-04-07T16:15:50.871Z,4.83
2019-04-07T16:18:17.033Z,4.55
2019-04-07T16:20:45.460Z,7.95
2019-04-07T16:23:17.433Z,4.12
2019-04-07T16:25:44.335Z,4.08
2019-04-07T16:28:14.443Z,4.35
2019-04-07T16:30:42.873Z,4.53
2019-04-07T16:33:11.238Z,4.65
2019-04-07T16:35:39.822Z,5.00
2019-04-07T16:38:08.411Z,4.45
2019-04-07T16:40:40.429Z,5.17
2019-04-07T16:43:13.128Z,6.95
2019-04-07T16:45:36.876Z,4.80
2019-04-07T16:48:06.702Z,4.37
2019-04-07T16:50:35.306Z,5.37
2019-04-07T16:53:06.535Z,4.67
2019-04-07T16:55:39.912Z,4.75
2019-04-07T16:58:09.507Z,4.47
2019-04-07T17:00:38.397Z,4.55
2019-04-07T17:03:08.062Z,5.70
2019-04-07T17:05:37.276Z,4.75
2019-04-07T17:08:05.935Z,4.90
2019-04-07T17:10:35.366Z,3.80
2019-04-07T17:13:15.250Z,3.98
2019-04-07T17:15:37.441Z,3.87
2019-04-07T17:18:07.582Z,4.60
2019-04-07T17:20:37.760Z,5.45
2019-04-07T17:23:07.109Z,5.37
2019-04-07T17:25:35.906Z,6.15
2019-04-07T17:28:06.027Z,4.53
2019-04-07T17:30:35.411Z,5.62
2019-04-07T17:33:05.216Z,5.97
2019-04-07T17:35:35.535Z,8.00
2019-04-07T17:38:06.805Z,5.50
2019-04-07T17:40:37.658Z,5.85
2019-04-07T17:43:10.805Z,6.17
2019-04-07T17:45:40.801Z,6.85
2019-04-07T17:48:13.724Z,9.60
2019-04-07T17:51:04.562Z,8.40
2019-04-07T17:53:38.147Z,9.85
2019-04-07T17:56:29.836Z,7.87
2019-04-07T17:59:14.177Z,6.67
2019-04-07T18:02:00.402Z,5.42
2019-04-07T18:04:36.420Z,4.95
2019-04-07T18:07:23.350Z,7.67
2019-04-07T18:10:11.590Z,8.30
2019-04-07T18:12:49.812Z,10.35
2019-04-07T18:15:19.193Z,10.32
2019-04-07T18:17:56.090Z,11.10
2019-04-07T18:20:26.363Z,9.95
2019-04-07T18:22:58.911Z,10.80
2019-04-07T18:25:32.116Z,11.22
2019-04-07T18:28:06.723Z,11.25
2019-04-07T18:30:36.990Z,9.65
2019-04-07T18:33:07.077Z,10.20
2019-04-07T18:35:40.758Z,9.10
2019-04-07T18:38:12.233Z,11.45
2019-04-07T18:40:58.339Z,11.78
2019-04-07T18:43:29.034Z,7.95
2019-04-07T18:46:01.878Z,5.90
2019-04-07T18:48:41.128Z,8.65
2019-04-07T18:51:27.336Z,6.53
2019-04-07T18:54:13.801Z,6.00
2019-04-07T18:56:49.593Z,9.00
2019-04-07T18:59:20.210Z,8.45
2019-04-07T19:01:52.921Z,11.68
2019-04-07T19:04:25.955Z,13.60
2019-04-07T19:06:57.954Z,16.07
2019-04-07T19:09:34.334Z,18.32
2019-04-07T19:12:10.919Z,15.68
2019-04-07T19:14:44.504Z,16.40
2019-04-07T19:17:17.158Z,17.15
2019-04-07T19:19:59.326Z,17.20
2019-04-07T19:22:28.945Z,16.67
2019-04-07T19:25:17.272Z,18.98
2019-04-07T19:27:48.249Z,16.65
2019-04-07T19:30:21.136Z,16.70
2019-04-07T19:33:03.463Z,16.25
2019-04-07T19:35:45.648Z,16.05
2019-04-07T19:38:27.461Z,16.62
2019-04-07T19:41:03.456Z,18.35
2019-04-07T19:43:33.489Z,15.72
2019-04-07T19:46:20.260Z,17.82
2019-04-07T19:48:50.292Z,15.32
2019-04-07T19:51:36.862Z,15.90
2019-04-07T19:54:18.033Z,17.65
2019-04-07T19:57:00.519Z,14.83
2019-04-07T19:59:30.668Z,14.33
2019-04-07T20:02:07.465Z,15.10
2019-04-07T20:04:53.691Z,15.75
2019-04-07T20:07:30.536Z,14.80
2019-04-07T20:10:01.313Z,14.83
2019-04-07T20:12:47.724Z,13.10
2019-04-07T20:15:39.064Z,13.05
2019-04-07T20:18:07.064Z,17.52
2019-04-07T20:20:38.485Z,16.00
2019-04-07T20:23:09.332Z,13.48
2019-04-07T20:25:46.203Z,12.20
2019-04-07T20:28:13.732Z,12.90
2019-04-07T20:33:34.079Z,12.50
2019-04-07T20:36:14.823Z,14.28
2019-04-07T20:39:00.441Z,12.98
2019-04-07T20:41:36.442Z,12.68
2019-04-07T20:44:25.850Z,12.30
2019-04-07T20:47:08.573Z,12.43
2019-04-07T20:49:41.160Z,11.80
2019-04-07T20:52:15.336Z,10.98
2019-04-07T20:54:57.481Z,10.70
2019-04-07T20:57:43.555Z,14.25
2019-04-07T21:00:22.898Z,11.63
2019-04-07T21:03:15.299Z,11.12
2019-04-07T21:05:39.255Z,10.55
2019-04-07T21:08:30.203Z,11.53
2019-04-07T21:10:59.100Z,8.78
2019-04-07T21:13:47.179Z,12.90
2019-04-07T21:16:25.905Z,11.10
2019-04-07T21:19:06.854Z,9.73
2019-04-07T21:21:35.763Z,9.75
2019-04-07T21:24:05.840Z,10.88
2019-04-07T21:26:35.985Z,9.50
2019-04-07T21:29:18.148Z,10.65
2019-04-07T21:32:03.493Z,10.30
2019-04-07T21:34:37.021Z,9.53
2019-04-07T21:37:15.843Z,10.78
2019-04-07T21:39:50.609Z,11.48
2019-04-07T21:42:30.758Z,11.65
2019-04-07T21:45:04.400Z,8.50
2019-04-07T21:47:36.528Z,11.78
2019-04-07T21:50:15.566Z,11.08
2019-04-07T21:52:45.655Z,9.80
2019-04-07T21:55:19.045Z,10.15
2019-04-07T21:58:01.139Z,9.23
2019-04-07T22:00:43.371Z,9.23
2019-04-07T22:03:15.773Z,8.53
2019-04-07T22:05:48.943Z,9.00
2019-04-07T22:08:19.973Z,10.72
2019-04-07T22:10:51.421Z,8.08
2019-04-07T22:13:19.545Z,10.15
2019-04-07T22:15:54.459Z,11.88
2019-04-07T22:18:18.026Z,7.95
2019-04-07T22:20:47.890Z,8.13
2019-04-07T22:23:16.682Z,6.65
2019-04-07T22:25:49.076Z,8.08
2019-04-07T22:28:18.406Z,5.17
2019-04-07T22:30:48.717Z,5.97
2019-04-07T22:33:17.933Z,6.87
2019-04-07T22:35:46.398Z,7.17
2019-04-07T22:38:15.055Z,5.37
2019-04-07T22:40:43.658Z,6.95
2019-04-07T22:43:12.039Z,6.08
2019-04-07T22:45:40.424Z,5.08
2019-04-07T22:48:09.925Z,7.00
2019-04-07T22:50:38.911Z,6.03
2019-04-07T22:53:08.155Z,5.80
2019-04-07T22:55:36.527Z,5.72
2019-04-07T22:58:05.453Z,6.10
2019-04-07T23:00:33.912Z,6.03
2019-04-07T23:03:02.311Z,7.97
2019-04-07T23:05:30.679Z,5.62
2019-04-07T23:07:59.907Z,5.72
2019-04-07T23:10:28.338Z,6.87
2019-04-07T23:12:57.281Z,5.95
2019-04-07T23:15:37.446Z,6.62
2019-04-07T23:17:55.678Z,5.87
2019-04-07T23:20:24.036Z,7.00
2019-04-07T23:22:52.409Z,6.42
2019-04-07T23:25:23.002Z,5.83
2019-04-07T23:27:50.819Z,6.55
2019-04-07T23:30:21.483Z,5.12
2019-04-07T23:32:50.029Z,5.25
2019-04-07T23:35:18.357Z,5.67
2019-04-07T23:37:46.747Z,5.12
2019-04-07T23:40:15.120Z,6.87
2019-04-07T23:42:43.516Z,7.37
2019-04-07T23:45:12.341Z,6.15
2019-04-07T23:47:40.826Z,5.78
2019-04-07T23:50:09.241Z,5.92
2019-04-07T23:52:37.592Z,4.78
2019-04-07T23:55:06.471Z,5.58
2019-04-07T23:57:34.941Z,5.10
